sensor_id;sensor_type;location;lat;lon;timestamp;temperature;humidity
43579;DHT22;29174;44.640;10.896;2024-03-08T00:00:43;12.30;71.80
43579;DHT22;29174;44.640;10.896;2024-03-08T00:03:09;12.30;71.90
43579;DHT22;29174;44.640;10.896;2024-03-08T00:05:36;12.30;72.00
43579;DHT22;29174;44.640;10.896;2024-03-08T00:08:04;12.20;72.10
43579;DHT22;29174;44.640;10.896;2024-03-08T00:10:30;12.20;72.40
43579;DHT22;29174;44.640;10.896;2024-03-08T00:12:56;12.20;72.50
43579;DHT22;29174;44.640;10.896;2024-03-08T00:15:23;12.10;72.60
43579;DHT22;29174;44.640;10.896;2024-03-08T00:17:48;12.10;72.30
43579;DHT22;29174;44.640;10.896;2024-03-08T00:20:15;12.10;72.00
43579;DHT22;29174;44.640;10.896;2024-03-08T00:22:43;12.10;72.50
43579;DHT22;29174;44.640;10.896;2024-03-08T00:25:09;12.10;72.90
43579;DHT22;29174;44.640;10.896;2024-03-08T00:27:36;12.10;73.10
43579;DHT22;29174;44.640;10.896;2024-03-08T00:30:02;12.00;73.10
43579;DHT22;29174;44.640;10.896;2024-03-08T00:32:28;12.10;73.70
43579;DHT22;29174;44.640;10.896;2024-03-08T00:34:54;12.00;73.20
43579;DHT22;29174;44.640;10.896;2024-03-08T00:37:20;12.00;73.30
43579;DHT22;29174;44.640;10.896;2024-03-08T00:39:52;12.00;73.40
43579;DHT22;29174;44.640;10.896;2024-03-08T00:42:19;11.90;73.30
43579;DHT22;29174;44.640;10.896;2024-03-08T00:44:45;11.90;73.30
43579;DHT22;29174;44.640;10.896;2024-03-08T00:47:11;11.80;73.20
43579;DHT22;29174;44.640;10.896;2024-03-08T00:49:37;11.80;73.50
43579;DHT22;29174;44.640;10.896;2024-03-08T00:52:04;11.80;73.80
43579;DHT22;29174;44.640;10.896;2024-03-08T00:54:32;11.70;73.90
43579;DHT22;29174;44.640;10.896;2024-03-08T00:56:58;11.70;74.20
43579;DHT22;29174;44.640;10.896;2024-03-08T00:59:25;11.70;74.20
43579;DHT22;29174;44.640;10.896;2024-03-08T01:01:50;11.70;73.90
43579;DHT22;29174;44.640;10.896;2024-03-08T01:04:16;11.70;73.60
43579;DHT22;29174;44.640;10.896;2024-03-08T01:06:42;11.60;73.60
43579;DHT22;29174;44.640;10.896;2024-03-08T01:09:11;11.60;74.40
43579;DHT22;29174;44.640;10.896;2024-03-08T01:11:37;11.60;73.80
43579;DHT22;29174;44.640;10.896;2024-03-08T01:14:03;11.50;74.10
43579;DHT22;29174;44.640;10.896;2024-03-08T01:16:29;11.50;74.30
43579;DHT22;29174;44.640;10.896;2024-03-08T01:18:55;11.50;74.40
43579;DHT22;29174;44.640;10.896;2024-03-08T01:21:20;11.50;74.50
43579;DHT22;29174;44.640;10.896;2024-03-08T01:23:47;11.50;74.60
43579;DHT22;29174;44.640;10.896;2024-03-08T01:26:13;11.50;74.50
43579;DHT22;29174;44.640;10.896;2024-03-08T01:28:40;11.50;74.40
43579;DHT22;29174;44.640;10.896;2024-03-08T01:31:06;11.50;74.40
43579;DHT22;29174;44.640;10.896;2024-03-08T01:33:31;11.50;73.60
43579;DHT22;29174;44.640;10.896;2024-03-08T01:35:58;11.50;73.90
43579;DHT22;29174;44.640;10.896;2024-03-08T01:38:23;11.50;74.00
43579;DHT22;29174;44.640;10.896;2024-03-08T01:40:52;11.40;74.00
43579;DHT22;29174;44.640;10.896;2024-03-08T01:43:24;11.40;75.00
43579;DHT22;29174;44.640;10.896;2024-03-08T01:45:50;11.40;74.60
43579;DHT22;29174;44.640;10.896;2024-03-08T01:48:17;11.40;74.30
43579;DHT22;29174;44.640;10.896;2024-03-08T01:50:43;11.40;74.40
43579;DHT22;29174;44.640;10.896;2024-03-08T01:53:10;11.30;74.40
43579;DHT22;29174;44.640;10.896;2024-03-08T01:55:37;11.30;74.70
43579;DHT22;29174;44.640;10.896;2024-03-08T01:58:05;11.30;74.70
43579;DHT22;29174;44.640;10.896;2024-03-08T02:00:32;11.20;74.90
43579;DHT22;29174;44.640;10.896;2024-03-08T02:02:58;11.30;75.00
43579;DHT22;29174;44.640;10.896;2024-03-08T02:05:24;11.30;75.10
43579;DHT22;29174;44.640;10.896;2024-03-08T02:07:50;11.20;75.40
43579;DHT22;29174;44.640;10.896;2024-03-08T02:10:17;11.20;75.30
43579;DHT22;29174;44.640;10.896;2024-03-08T02:12:42;11.20;75.00
43579;DHT22;29174;44.640;10.896;2024-03-08T02:15:09;11.20;74.70
43579;DHT22;29174;44.640;10.896;2024-03-08T02:17:36;11.20;74.80
43579;DHT22;29174;44.640;10.896;2024-03-08T02:20:02;11.20;74.90
43579;DHT22;29174;44.640;10.896;2024-03-08T02:22:30;11.10;74.80
43579;DHT22;29174;44.640;10.896;2024-03-08T02:24:56;11.10;74.80
43579;DHT22;29174;44.640;10.896;2024-03-08T02:27:26;11.00;74.70
43579;DHT22;29174;44.640;10.896;2024-03-08T02:29:54;11.00;75.20
43579;DHT22;29174;44.640;10.896;2024-03-08T02:32:22;11.00;75.30
43579;DHT22;29174;44.640;10.896;2024-03-08T02:34:48;11.00;75.10
43579;DHT22;29174;44.640;10.896;2024-03-08T02:37:13;10.90;75.00
43579;DHT22;29174;44.640;10.896;2024-03-08T02:39:39;10.90;74.90
43579;DHT22;29174;44.640;10.896;2024-03-08T02:42:05;10.90;74.90
43579;DHT22;29174;44.640;10.896;2024-03-08T02:44:30;10.90;74.80
43579;DHT22;29174;44.640;10.896;2024-03-08T02:46:59;10.80;74.70
43579;DHT22;29174;44.640;10.896;2024-03-08T02:49:26;10.80;74.90
43579;DHT22;29174;44.640;10.896;2024-03-08T02:51:52;10.70;75.10
43579;DHT22;29174;44.640;10.896;2024-03-08T02:54:18;10.70;75.40
43579;DHT22;29174;44.640;10.896;2024-03-08T02:56:45;10.70;75.50
43579;DHT22;29174;44.640;10.896;2024-03-08T02:59:12;10.60;75.70
43579;DHT22;29174;44.640;10.896;2024-03-08T03:01:38;10.60;75.70
43579;DHT22;29174;44.640;10.896;2024-03-08T03:04:04;10.60;75.40
43579;DHT22;29174;44.640;10.896;2024-03-08T03:06:30;10.50;75.80
43579;DHT22;29174;44.640;10.896;2024-03-08T03:08:57;10.50;76.30
43579;DHT22;29174;44.640;10.896;2024-03-08T03:11:23;10.50;76.20
43579;DHT22;29174;44.640;10.896;2024-03-08T03:13:49;10.50;76.20
43579;DHT22;29174;44.640;10.896;2024-03-08T03:16:21;10.50;76.30
43579;DHT22;29174;44.640;10.896;2024-03-08T03:18:47;10.50;76.80
43579;DHT22;29174;44.640;10.896;2024-03-08T03:21:13;10.50;76.60
43579;DHT22;29174;44.640;10.896;2024-03-08T03:23:39;10.50;77.10
43579;DHT22;29174;44.640;10.896;2024-03-08T03:26:06;10.50;76.30
43579;DHT22;29174;44.640;10.896;2024-03-08T03:28:37;10.50;76.00
43579;DHT22;29174;44.640;10.896;2024-03-08T03:31:07;10.50;75.40
43579;DHT22;29174;44.640;10.896;2024-03-08T03:33:32;10.50;75.40
43579;DHT22;29174;44.640;10.896;2024-03-08T03:36:00;10.50;74.80
43579;DHT22;29174;44.640;10.896;2024-03-08T03:38:26;10.40;75.10
43579;DHT22;29174;44.640;10.896;2024-03-08T03:40:53;10.40;75.60
43579;DHT22;29174;44.640;10.896;2024-03-08T03:43:25;10.30;75.70
43579;DHT22;29174;44.640;10.896;2024-03-08T03:45:52;10.30;75.70
43579;DHT22;29174;44.640;10.896;2024-03-08T03:48:19;10.30;75.80
43579;DHT22;29174;44.640;10.896;2024-03-08T03:50:45;10.30;76.00
43579;DHT22;29174;44.640;10.896;2024-03-08T03:53:11;10.30;76.10
43579;DHT22;29174;44.640;10.896;2024-03-08T03:55:36;10.30;76.00
43579;DHT22;29174;44.640;10.896;2024-03-08T03:58:04;10.30;76.60
43579;DHT22;29174;44.640;10.896;2024-03-08T04:00:29;10.20;76.70
43579;DHT22;29174;44.640;10.896;2024-03-08T04:02:55;10.20;76.90
43579;DHT22;29174;44.640;10.896;2024-03-08T04:05:24;10.20;77.10
43579;DHT22;29174;44.640;10.896;2024-03-08T04:07:50;10.20;77.30
43579;DHT22;29174;44.640;10.896;2024-03-08T04:10:15;10.20;77.30
43579;DHT22;29174;44.640;10.896;2024-03-08T04:12:41;10.20;77.20
43579;DHT22;29174;44.640;10.896;2024-03-08T04:15:08;10.10;77.20
43579;DHT22;29174;44.640;10.896;2024-03-08T04:17:34;10.10;77.10
43579;DHT22;29174;44.640;10.896;2024-03-08T04:20:06;10.10;77.20
43579;DHT22;29174;44.640;10.896;2024-03-08T04:22:38;10.10;77.60
43579;DHT22;29174;44.640;10.896;2024-03-08T04:25:05;10.00;77.70
43579;DHT22;29174;44.640;10.896;2024-03-08T04:27:35;10.00;77.80
43579;DHT22;29174;44.640;10.896;2024-03-08T04:30:01;10.00;78.00
43579;DHT22;29174;44.640;10.896;2024-03-08T04:32:27;10.00;78.20
43579;DHT22;29174;44.640;10.896;2024-03-08T04:34:55;10.00;78.40
43579;DHT22;29174;44.640;10.896;2024-03-08T04:37:21;10.00;78.60
43579;DHT22;29174;44.640;10.896;2024-03-08T04:39:47;10.00;78.70
43579;DHT22;29174;44.640;10.896;2024-03-08T04:42:13;9.90;78.40
43579;DHT22;29174;44.640;10.896;2024-03-08T04:44:40;10.00;78.70
43579;DHT22;29174;44.640;10.896;2024-03-08T04:47:05;9.90;78.90
43579;DHT22;29174;44.640;10.896;2024-03-08T04:49:32;9.90;79.00
43579;DHT22;29174;44.640;10.896;2024-03-08T04:52:01;9.90;79.00
43579;DHT22;29174;44.640;10.896;2024-03-08T04:54:28;9.90;79.10
43579;DHT22;29174;44.640;10.896;2024-03-08T04:56:53;9.90;79.10
43579;DHT22;29174;44.640;10.896;2024-03-08T04:59:19;9.90;79.40
43579;DHT22;29174;44.640;10.896;2024-03-08T05:01:45;9.90;79.50
43579;DHT22;29174;44.640;10.896;2024-03-08T05:04:10;9.90;79.50
43579;DHT22;29174;44.640;10.896;2024-03-08T05:06:36;9.90;79.20
43579;DHT22;29174;44.640;10.896;2024-03-08T05:09:02;9.90;79.30
43579;DHT22;29174;44.640;10.896;2024-03-08T05:11:46;9.80;79.30
43579;DHT22;29174;44.640;10.896;2024-03-08T05:14:13;9.90;78.70
43579;DHT22;29174;44.640;10.896;2024-03-08T05:16:43;9.90;78.30
43579;DHT22;29174;44.640;10.896;2024-03-08T05:19:09;9.80;78.20
43579;DHT22;29174;44.640;10.896;2024-03-08T05:21:34;9.80;78.10
43579;DHT22;29174;44.640;10.896;2024-03-08T05:24:00;9.80;77.90
43579;DHT22;29174;44.640;10.896;2024-03-08T05:26:25;9.70;78.20
43579;DHT22;29174;44.640;10.896;2024-03-08T05:28:51;9.70;78.50
43579;DHT22;29174;44.640;10.896;2024-03-08T05:31:20;9.60;78.60
43579;DHT22;29174;44.640;10.896;2024-03-08T05:33:50;9.60;78.70
43579;DHT22;29174;44.640;10.896;2024-03-08T05:36:16;9.60;78.80
43579;DHT22;29174;44.640;10.896;2024-03-08T05:38:44;9.60;78.80
43579;DHT22;29174;44.640;10.896;2024-03-08T05:41:10;9.60;78.80
43579;DHT22;29174;44.640;10.896;2024-03-08T05:43:37;9.50;79.00
43579;DHT22;29174;44.640;10.896;2024-03-08T05:46:04;9.50;79.20
43579;DHT22;29174;44.640;10.896;2024-03-08T05:48:33;9.50;79.20
43579;DHT22;29174;44.640;10.896;2024-03-08T05:51:00;9.60;79.10
43579;DHT22;29174;44.640;10.896;2024-03-08T05:53:25;9.50;79.00
43579;DHT22;29174;44.640;10.896;2024-03-08T05:55:52;9.50;79.00
43579;DHT22;29174;44.640;10.896;2024-03-08T05:58:17;9.60;79.20
43579;DHT22;29174;44.640;10.896;2024-03-08T06:00:43;9.50;79.30
43579;DHT22;29174;44.640;10.896;2024-03-08T06:03:11;9.60;79.40
43579;DHT22;29174;44.640;10.896;2024-03-08T06:05:37;9.60;79.30
43579;DHT22;29174;44.640;10.896;2024-03-08T06:08:03;9.60;79.20
43579;DHT22;29174;44.640;10.896;2024-03-08T06:10:30;9.60;79.00
43579;DHT22;29174;44.640;10.896;2024-03-08T06:12:55;9.60;78.80
43579;DHT22;29174;44.640;10.896;2024-03-08T06:15:21;9.60;78.80
43579;DHT22;29174;44.640;10.896;2024-03-08T06:17:47;9.60;78.90
43579;DHT22;29174;44.640;10.896;2024-03-08T06:20:13;9.60;79.00
43579;DHT22;29174;44.640;10.896;2024-03-08T06:22:42;9.60;79.00
43579;DHT22;29174;44.640;10.896;2024-03-08T06:25:16;9.60;79.50
43579;DHT22;29174;44.640;10.896;2024-03-08T06:27:43;9.60;80.10
43579;DHT22;29174;44.640;10.896;2024-03-08T06:30:10;9.70;80.20
43579;DHT22;29174;44.640;10.896;2024-03-08T06:32:39;9.70;80.70
43579;DHT22;29174;44.640;10.896;2024-03-08T06:35:05;9.80;81.00
43579;DHT22;29174;44.640;10.896;2024-03-08T06:37:36;9.80;81.30
43579;DHT22;29174;44.640;10.896;2024-03-08T06:40:02;9.80;81.20
43579;DHT22;29174;44.640;10.896;2024-03-08T06:42:29;9.90;81.50
43579;DHT22;29174;44.640;10.896;2024-03-08T06:44:55;9.90;81.40
43579;DHT22;29174;44.640;10.896;2024-03-08T06:47:25;10.00;81.60
43579;DHT22;29174;44.640;10.896;2024-03-08T06:49:51;10.00;81.70
43579;DHT22;29174;44.640;10.896;2024-03-08T06:52:17;10.00;82.00
43579;DHT22;29174;44.640;10.896;2024-03-08T06:54:43;10.10;82.50
43579;DHT22;29174;44.640;10.896;2024-03-08T06:57:09;10.10;82.50
43579;DHT22;29174;44.640;10.896;2024-03-08T06:59:36;10.20;82.60
43579;DHT22;29174;44.640;10.896;2024-03-08T07:02:02;10.20;82.80
43579;DHT22;29174;44.640;10.896;2024-03-08T07:04:28;10.30;83.00
43579;DHT22;29174;44.640;10.896;2024-03-08T07:06:59;10.30;83.10
43579;DHT22;29174;44.640;10.896;2024-03-08T07:09:25;10.30;83.70
43579;DHT22;29174;44.640;10.896;2024-03-08T07:11:51;10.40;84.20
43579;DHT22;29174;44.640;10.896;2024-03-08T07:14:25;10.40;84.90
43579;DHT22;29174;44.640;10.896;2024-03-08T07:16:51;10.50;86.10
43579;DHT22;29174;44.640;10.896;2024-03-08T07:19:17;10.60;86.30
43579;DHT22;29174;44.640;10.896;2024-03-08T07:21:46;10.70;86.80
43579;DHT22;29174;44.640;10.896;2024-03-08T07:24:14;10.60;87.20
43579;DHT22;29174;44.640;10.896;2024-03-08T07:27:05;10.70;87.30
43579;DHT22;29174;44.640;10.896;2024-03-08T07:29:32;10.90;87.10
43579;DHT22;29174;44.640;10.896;2024-03-08T07:31:58;10.90;87.30
43579;DHT22;29174;44.640;10.896;2024-03-08T07:34:49;11.00;86.60
43579;DHT22;29174;44.640;10.896;2024-03-08T07:37:18;11.10;86.10
43579;DHT22;29174;44.640;10.896;2024-03-08T07:39:45;11.20;86.70
43579;DHT22;29174;44.640;10.896;2024-03-08T07:42:11;11.20;87.30
43579;DHT22;29174;44.640;10.896;2024-03-08T07:44:38;11.20;87.50
43579;DHT22;29174;44.640;10.896;2024-03-08T07:47:04;11.30;88.40
43579;DHT22;29174;44.640;10.896;2024-03-08T07:49:30;11.30;87.90
43579;DHT22;29174;44.640;10.896;2024-03-08T07:51:56;11.30;88.10
43579;DHT22;29174;44.640;10.896;2024-03-08T07:54:23;11.30;88.80
43579;DHT22;29174;44.640;10.896;2024-03-08T07:56:48;11.20;89.00
43579;DHT22;29174;44.640;10.896;2024-03-08T07:59:16;11.20;89.80
43579;DHT22;29174;44.640;10.896;2024-03-08T08:01:42;11.20;90.10
43579;DHT22;29174;44.640;10.896;2024-03-08T08:04:09;11.30;90.30
43579;DHT22;29174;44.640;10.896;2024-03-08T08:06:38;11.30;90.30
43579;DHT22;29174;44.640;10.896;2024-03-08T08:09:06;11.40;90.30
43579;DHT22;29174;44.640;10.896;2024-03-08T08:11:40;11.30;90.40
43579;DHT22;29174;44.640;10.896;2024-03-08T08:14:06;11.40;90.50
43579;DHT22;29174;44.640;10.896;2024-03-08T08:16:35;11.40;90.50
43579;DHT22;29174;44.640;10.896;2024-03-08T08:19:02;11.40;90.50
43579;DHT22;29174;44.640;10.896;2024-03-08T08:21:36;11.50;90.50
43579;DHT22;29174;44.640;10.896;2024-03-08T08:24:03;11.50;90.50
43579;DHT22;29174;44.640;10.896;2024-03-08T08:26:29;11.60;90.60
43579;DHT22;29174;44.640;10.896;2024-03-08T08:28:55;11.60;90.60
43579;DHT22;29174;44.640;10.896;2024-03-08T08:31:20;11.60;90.50
43579;DHT22;29174;44.640;10.896;2024-03-08T08:33:46;11.70;90.40
43579;DHT22;29174;44.640;10.896;2024-03-08T08:36:13;11.70;90.50
43579;DHT22;29174;44.640;10.896;2024-03-08T08:38:39;11.70;90.50
43579;DHT22;29174;44.640;10.896;2024-03-08T08:41:05;11.70;90.40
43579;DHT22;29174;44.640;10.896;2024-03-08T08:43:31;11.80;90.40
43579;DHT22;29174;44.640;10.896;2024-03-08T08:45:59;11.80;90.40
43579;DHT22;29174;44.640;10.896;2024-03-08T08:48:24;11.80;90.40
43579;DHT22;29174;44.640;10.896;2024-03-08T08:50:50;11.80;90.50
43579;DHT22;29174;44.640;10.896;2024-03-08T08:53:17;11.80;90.40
43579;DHT22;29174;44.640;10.896;2024-03-08T08:55:43;11.80;90.40
43579;DHT22;29174;44.640;10.896;2024-03-08T08:58:11;11.70;90.20
43579;DHT22;29174;44.640;10.896;2024-03-08T09:00:37;11.80;90.30
43579;DHT22;29174;44.640;10.896;2024-03-08T09:03:02;11.80;90.50
43579;DHT22;29174;44.640;10.896;2024-03-08T09:05:28;11.70;90.40
43579;DHT22;29174;44.640;10.896;2024-03-08T09:07:54;11.80;90.30
43579;DHT22;29174;44.640;10.896;2024-03-08T09:10:20;11.70;90.30
43579;DHT22;29174;44.640;10.896;2024-03-08T09:12:46;11.80;90.30
43579;DHT22;29174;44.640;10.896;2024-03-08T09:15:13;11.80;90.20
43579;DHT22;29174;44.640;10.896;2024-03-08T09:17:39;11.80;90.10
43579;DHT22;29174;44.640;10.896;2024-03-08T09:20:10;11.80;90.10
43579;DHT22;29174;44.640;10.896;2024-03-08T09:22:40;11.80;90.10
43579;DHT22;29174;44.640;10.896;2024-03-08T09:25:06;11.80;90.10
43579;DHT22;29174;44.640;10.896;2024-03-08T09:27:33;11.80;90.20
43579;DHT22;29174;44.640;10.896;2024-03-08T09:29:59;11.80;90.30
43579;DHT22;29174;44.640;10.896;2024-03-08T09:32:25;11.90;90.20
43579;DHT22;29174;44.640;10.896;2024-03-08T09:34:52;11.90;90.00
43579;DHT22;29174;44.640;10.896;2024-03-08T09:37:17;12.00;90.10
43579;DHT22;29174;44.640;10.896;2024-03-08T09:39:44;12.00;90.10
43579;DHT22;29174;44.640;10.896;2024-03-08T09:42:10;12.00;89.70
43579;DHT22;29174;44.640;10.896;2024-03-08T09:44:43;12.10;90.00
43579;DHT22;29174;44.640;10.896;2024-03-08T09:47:10;12.10;89.50
43579;DHT22;29174;44.640;10.896;2024-03-08T09:49:39;12.10;89.30
43579;DHT22;29174;44.640;10.896;2024-03-08T09:52:07;12.10;89.30
43579;DHT22;29174;44.640;10.896;2024-03-08T09:54:32;12.10;88.80
43579;DHT22;29174;44.640;10.896;2024-03-08T09:56:59;12.10;88.50
43579;DHT22;29174;44.640;10.896;2024-03-08T09:59:25;12.20;87.70
43579;DHT22;29174;44.640;10.896;2024-03-08T10:01:54;12.20;87.60
43579;DHT22;29174;44.640;10.896;2024-03-08T10:04:24;12.20;87.40
43579;DHT22;29174;44.640;10.896;2024-03-08T10:06:51;12.20;88.40
43579;DHT22;29174;44.640;10.896;2024-03-08T10:09:17;12.40;88.60
43579;DHT22;29174;44.640;10.896;2024-03-08T10:11:44;12.60;88.10
43579;DHT22;29174;44.640;10.896;2024-03-08T10:14:11;12.90;87.30
43579;DHT22;29174;44.640;10.896;2024-03-08T10:16:38;13.00;86.20
43579;DHT22;29174;44.640;10.896;2024-03-08T10:19:05;13.20;86.10
43579;DHT22;29174;44.640;10.896;2024-03-08T10:21:32;13.40;85.00
43579;DHT22;29174;44.640;10.896;2024-03-08T10:23:58;13.50;84.40
43579;DHT22;29174;44.640;10.896;2024-03-08T10:26:25;13.60;83.90
43579;DHT22;29174;44.640;10.896;2024-03-08T10:28:52;13.70;84.80
43579;DHT22;29174;44.640;10.896;2024-03-08T10:31:21;13.80;83.80
43579;DHT22;29174;44.640;10.896;2024-03-08T10:33:47;13.90;83.30
43579;DHT22;29174;44.640;10.896;2024-03-08T10:36:14;14.10;82.40
43579;DHT22;29174;44.640;10.896;2024-03-08T10:38:41;14.20;81.30
43579;DHT22;29174;44.640;10.896;2024-03-08T10:41:08;14.20;80.80
43579;DHT22;29174;44.640;10.896;2024-03-08T10:46:57;14.40;80.00
43579;DHT22;29174;44.640;10.896;2024-03-08T10:49:31;14.60;79.30
43579;DHT22;29174;44.640;10.896;2024-03-08T10:52:04;14.70;78.50
43579;DHT22;29174;44.640;10.896;2024-03-08T10:54:31;14.80;77.40
43579;DHT22;29174;44.640;10.896;2024-03-08T10:56:59;14.80;77.80
43579;DHT22;29174;44.640;10.896;2024-03-08T10:59:26;14.90;77.20
43579;DHT22;29174;44.640;10.896;2024-03-08T11:01:53;14.90;76.90
43579;DHT22;29174;44.640;10.896;2024-03-08T11:04:19;15.10;77.30
43579;DHT22;29174;44.640;10.896;2024-03-08T11:06:50;15.20;77.40
43579;DHT22;29174;44.640;10.896;2024-03-08T11:12:18;15.20;77.70
43579;DHT22;29174;44.640;10.896;2024-03-08T11:14:45;15.10;77.80
43579;DHT22;29174;44.640;10.896;2024-03-08T11:17:13;15.10;77.70
43579;DHT22;29174;44.640;10.896;2024-03-08T11:19:46;15.00;78.40
43579;DHT22;29174;44.640;10.896;2024-03-08T11:22:21;14.90;78.20
43579;DHT22;29174;44.640;10.896;2024-03-08T11:24:49;14.90;79.70
43579;DHT22;29174;44.640;10.896;2024-03-08T11:27:15;15.00;79.90
43579;DHT22;29174;44.640;10.896;2024-03-08T11:29:41;15.10;79.00
43579;DHT22;29174;44.640;10.896;2024-03-08T11:34:39;15.10;78.20
43579;DHT22;29174;44.640;10.896;2024-03-08T11:37:12;15.10;78.50
43579;DHT22;29174;44.640;10.896;2024-03-08T11:42:15;15.00;78.70
43579;DHT22;29174;44.640;10.896;2024-03-08T11:44:43;15.00;79.50
43579;DHT22;29174;44.640;10.896;2024-03-08T11:47:10;15.00;79.40
43579;DHT22;29174;44.640;10.896;2024-03-08T11:49:37;14.90;79.40
43579;DHT22;29174;44.640;10.896;2024-03-08T11:52:04;14.90;79.60
43579;DHT22;29174;44.640;10.896;2024-03-08T11:54:29;14.90;80.00
43579;DHT22;29174;44.640;10.896;2024-03-08T11:56:56;14.80;80.20
43579;DHT22;29174;44.640;10.896;2024-03-08T11:59:27;14.80;80.70
43579;DHT22;29174;44.640;10.896;2024-03-08T12:02:06;14.70;80.70
43579;DHT22;29174;44.640;10.896;2024-03-08T12:04:33;14.70;81.50
43579;DHT22;29174;44.640;10.896;2024-03-08T12:07:02;14.60;81.40
43579;DHT22;29174;44.640;10.896;2024-03-08T12:09:31;14.60;81.60
43579;DHT22;29174;44.640;10.896;2024-03-08T12:11:58;14.60;81.80
43579;DHT22;29174;44.640;10.896;2024-03-08T12:14:24;14.60;82.20
43579;DHT22;29174;44.640;10.896;2024-03-08T12:16:51;14.50;82.10
43579;DHT22;29174;44.640;10.896;2024-03-08T12:19:17;14.60;82.30
43579;DHT22;29174;44.640;10.896;2024-03-08T12:21:43;14.60;82.30
43579;DHT22;29174;44.640;10.896;2024-03-08T12:24:18;14.60;82.40
43579;DHT22;29174;44.640;10.896;2024-03-08T12:26:45;14.60;82.40
43579;DHT22;29174;44.640;10.896;2024-03-08T12:29:17;14.50;82.30
43579;DHT22;29174;44.640;10.896;2024-03-08T12:31:55;14.50;82.30
43579;DHT22;29174;44.640;10.896;2024-03-08T12:34:23;14.50;82.40
43579;DHT22;29174;44.640;10.896;2024-03-08T12:36:51;14.50;82.40
43579;DHT22;29174;44.640;10.896;2024-03-08T12:39:23;14.50;82.60
43579;DHT22;29174;44.640;10.896;2024-03-08T12:41:53;14.50;82.40
43579;DHT22;29174;44.640;10.896;2024-03-08T12:47:05;14.50;82.80
43579;DHT22;29174;44.640;10.896;2024-03-08T12:49:34;14.50;83.40
43579;DHT22;29174;44.640;10.896;2024-03-08T12:52:00;15.50;83.60
43579;DHT22;29174;44.640;10.896;2024-03-08T12:54:26;14.50;81.90
43579;DHT22;29174;44.640;10.896;2024-03-08T12:56:52;14.50;82.10
43579;DHT22;29174;44.640;10.896;2024-03-08T12:59:19;14.50;82.20
43579;DHT22;29174;44.640;10.896;2024-03-08T13:01:44;14.50;82.00
43579;DHT22;29174;44.640;10.896;2024-03-08T13:04:10;14.50;81.70
43579;DHT22;29174;44.640;10.896;2024-03-08T13:06:39;14.40;81.60
43579;DHT22;29174;44.640;10.896;2024-03-08T13:09:06;14.40;82.00
43579;DHT22;29174;44.640;10.896;2024-03-08T13:11:32;14.40;82.10
43579;DHT22;29174;44.640;10.896;2024-03-08T13:14:03;14.40;82.00
43579;DHT22;29174;44.640;10.896;2024-03-08T13:16:31;14.40;82.20
43579;DHT22;29174;44.640;10.896;2024-03-08T13:18:57;14.40;82.20
43579;DHT22;29174;44.640;10.896;2024-03-08T13:21:23;14.40;82.40
43579;DHT22;29174;44.640;10.896;2024-03-08T13:23:49;14.40;82.70
43579;DHT22;29174;44.640;10.896;2024-03-08T13:26:16;14.40;82.00
43579;DHT22;29174;44.640;10.896;2024-03-08T13:28:46;14.30;81.90
43579;DHT22;29174;44.640;10.896;2024-03-08T13:31:14;14.20;82.20
43579;DHT22;29174;44.640;10.896;2024-03-08T13:33:40;14.20;82.20
43579;DHT22;29174;44.640;10.896;2024-03-08T13:36:08;14.20;82.00
43579;DHT22;29174;44.640;10.896;2024-03-08T13:38:49;14.10;82.10
43579;DHT22;29174;44.640;10.896;2024-03-08T13:41:17;14.10;82.20
43579;DHT22;29174;44.640;10.896;2024-03-08T13:43:46;14.10;82.20
43579;DHT22;29174;44.640;10.896;2024-03-08T13:46:15;14.10;82.40
43579;DHT22;29174;44.640;10.896;2024-03-08T13:48:41;14.10;82.10
43579;DHT22;29174;44.640;10.896;2024-03-08T13:51:07;14.10;81.90
43579;DHT22;29174;44.640;10.896;2024-03-08T13:53:33;14.10;82.20
43579;DHT22;29174;44.640;10.896;2024-03-08T13:56:02;14.10;82.20
43579;DHT22;29174;44.640;10.896;2024-03-08T13:58:28;14.10;81.70
43579;DHT22;29174;44.640;10.896;2024-03-08T14:00:54;14.10;81.60
43579;DHT22;29174;44.640;10.896;2024-03-08T14:03:21;14.10;81.60
43579;DHT22;29174;44.640;10.896;2024-03-08T14:05:47;14.10;81.70
43579;DHT22;29174;44.640;10.896;2024-03-08T14:08:13;14.10;81.40
43579;DHT22;29174;44.640;10.896;2024-03-08T14:10:39;14.10;81.60
43579;DHT22;29174;44.640;10.896;2024-03-08T14:13:05;14.10;81.70
43579;DHT22;29174;44.640;10.896;2024-03-08T14:15:32;14.10;81.80
43579;DHT22;29174;44.640;10.896;2024-03-08T14:17:58;14.10;81.90
43579;DHT22;29174;44.640;10.896;2024-03-08T14:20:25;14.10;81.60
43579;DHT22;29174;44.640;10.896;2024-03-08T14:22:54;14.20;81.60
43579;DHT22;29174;44.640;10.896;2024-03-08T14:25:21;14.20;81.50
43579;DHT22;29174;44.640;10.896;2024-03-08T14:27:50;14.20;81.00
43579;DHT22;29174;44.640;10.896;2024-03-08T14:30:16;14.20;81.10
43579;DHT22;29174;44.640;10.896;2024-03-08T14:32:58;14.20;80.90
43579;DHT22;29174;44.640;10.896;2024-03-08T14:35:25;14.30;80.60
43579;DHT22;29174;44.640;10.896;2024-03-08T14:37:51;14.20;80.40
43579;DHT22;29174;44.640;10.896;2024-03-08T14:40:17;14.20;80.50
43579;DHT22;29174;44.640;10.896;2024-03-08T14:42:48;14.10;81.00
43579;DHT22;29174;44.640;10.896;2024-03-08T14:45:15;14.10;80.40
43579;DHT22;29174;44.640;10.896;2024-03-08T14:47:41;14.10;80.30
43579;DHT22;29174;44.640;10.896;2024-03-08T14:50:08;14.10;80.20
43579;DHT22;29174;44.640;10.896;2024-03-08T14:52:35;14.00;80.30
43579;DHT22;29174;44.640;10.896;2024-03-08T14:55:01;14.10;80.70
43579;DHT22;29174;44.640;10.896;2024-03-08T14:57:28;14.10;80.50
43579;DHT22;29174;44.640;10.896;2024-03-08T14:59:58;14.10;80.20
43579;DHT22;29174;44.640;10.896;2024-03-08T15:02:31;14.10;80.00
43579;DHT22;29174;44.640;10.896;2024-03-08T15:04:57;14.00;79.70
43579;DHT22;29174;44.640;10.896;2024-03-08T15:07:26;13.90;79.60
43579;DHT22;29174;44.640;10.896;2024-03-08T15:09:55;14.00;79.60
43579;DHT22;29174;44.640;10.896;2024-03-08T15:12:22;13.90;79.70
43579;DHT22;29174;44.640;10.896;2024-03-08T15:14:52;13.90;80.20
43579;DHT22;29174;44.640;10.896;2024-03-08T15:17:18;13.90;80.20
43579;DHT22;29174;44.640;10.896;2024-03-08T15:19:49;13.90;80.20
43579;DHT22;29174;44.640;10.896;2024-03-08T15:22:15;13.90;80.10
43579;DHT22;29174;44.640;10.896;2024-03-08T15:24:44;13.80;80.30
43579;DHT22;29174;44.640;10.896;2024-03-08T15:27:09;13.80;80.40
43579;DHT22;29174;44.640;10.896;2024-03-08T15:29:35;13.80;80.70
43579;DHT22;29174;44.640;10.896;2024-03-08T15:32:02;13.80;80.60